createdAt,value
2023-02-12T00:01:38.573Z,80.90
2023-02-12T00:04:05.156Z,80.94
2023-02-12T00:06:31.971Z,81.00
2023-02-12T00:08:59.346Z,81.38
2023-02-12T00:11:28.236Z,81.47
2023-02-12T00:21:33.504Z,82.73
2023-02-12T00:24:00.135Z,82.91
2023-02-12T00:26:26.763Z,82.51
2023-02-12T00:31:33.246Z,83.39
2023-02-12T00:34:00.552Z,83.75
2023-02-12T00:36:29.589Z,84.24
2023-02-12T00:38:57.236Z,84.42
2023-02-12T00:41:24.357Z,84.39
2023-02-12T00:43:51.580Z,84.51
2023-02-12T00:46:18.887Z,84.40
2023-02-12T00:48:45.593Z,84.75
2023-02-12T00:51:12.273Z,85.23
2023-02-12T00:53:38.964Z,84.96
2023-02-12T00:56:06.084Z,84.78
2023-02-12T00:58:32.902Z,84.76
2023-02-12T01:03:32.900Z,85.21
2023-02-12T01:05:59.448Z,85.48
2023-02-12T01:08:26.242Z,85.84
2023-02-12T01:10:58.339Z,85.16
2023-02-12T01:13:26.077Z,85.71
2023-02-12T01:18:44.865Z,84.47
2023-02-12T01:21:15.170Z,85.02
2023-02-12T01:23:42.949Z,85.00
2023-02-12T01:26:11.749Z,84.72
2023-02-12T01:28:42.833Z,85.14
2023-02-12T01:31:15.066Z,85.36
2023-02-12T01:33:43.528Z,85.56
2023-02-12T01:36:11.371Z,84.38
2023-02-12T01:38:37.924Z,84.70
2023-02-12T01:41:11.610Z,84.93
2023-02-12T01:43:38.807Z,84.59
2023-02-12T01:46:06.749Z,83.74
2023-02-12T01:48:39.097Z,83.92
2023-02-12T01:51:09.572Z,82.59
2023-02-12T01:53:41.227Z,82.21
2023-02-12T01:56:09.688Z,82.35
2023-02-12T01:58:40.025Z,82.71
2023-02-12T02:01:09.870Z,83.08
2023-02-12T02:06:20.032Z,83.67
2023-02-12T02:08:47.075Z,84.01
2023-02-12T02:11:32.059Z,84.09
2023-02-12T02:14:17.299Z,83.56
2023-02-12T02:16:51.967Z,84.22
2023-02-12T02:20:09.579Z,84.25
2023-02-12T02:22:50.123Z,83.89
2023-02-12T02:25:42.369Z,82.84
2023-02-12T02:28:32.904Z,82.09
2023-02-12T02:31:02.249Z,81.77
2023-02-12T02:33:51.431Z,81.37
2023-02-12T02:37:00.210Z,81.57
2023-02-12T02:39:41.085Z,81.52
2023-02-12T02:42:37.191Z,81.33
2023-02-12T02:45:13.582Z,81.12
2023-02-12T02:47:45.843Z,81.72
2023-02-12T02:50:16.875Z,81.95
2023-02-12T02:55:36.060Z,83.01
2023-02-12T02:58:25.450Z,82.10
2023-02-12T03:03:38.385Z,82.31
2023-02-12T03:06:13.696Z,82.64
2023-02-12T03:08:47.066Z,82.60
2023-02-12T03:11:25.482Z,82.83
2023-02-12T03:14:13.724Z,83.11
2023-02-12T03:16:47.528Z,83.57
2023-02-12T03:19:31.545Z,83.73
2023-02-12T03:22:03.297Z,84.42
2023-02-12T03:24:46.614Z,84.71
2023-02-12T03:27:26.561Z,83.81
2023-02-12T03:29:53.254Z,83.91
2023-02-12T03:32:36.294Z,83.30
2023-02-12T03:38:16.607Z,83.86
2023-02-12T03:41:06.846Z,83.51
2023-02-12T03:43:56.078Z,83.95
2023-02-12T03:46:27.725Z,84.19
2023-02-12T03:49:16.401Z,84.01
2023-02-12T03:51:45.098Z,83.54
2023-02-12T03:54:15.884Z,83.68
2023-02-12T03:56:52.233Z,83.45
2023-02-12T03:59:20.216Z,83.90
2023-02-12T04:01:49.075Z,84.46
2023-02-12T04:04:16.506Z,83.72
2023-02-12T04:06:43.802Z,84.49
2023-02-12T04:09:12.854Z,84.35
2023-02-12T04:11:54.172Z,84.35
2023-02-12T04:14:25.156Z,85.02
2023-02-12T04:17:03.539Z,84.41
2023-02-12T04:20:04.375Z,84.92
2023-02-12T04:22:54.017Z,83.40
2023-02-12T04:25:42.433Z,83.57
2023-02-12T04:28:27.611Z,84.18
2023-02-12T04:31:06.491Z,84.27
2023-02-12T04:33:41.469Z,84.46
2023-02-12T04:36:20.997Z,84.33
2023-02-12T04:38:54.062Z,83.82
2023-02-12T04:41:20.879Z,84.36
2023-02-12T04:43:47.449Z,84.53
2023-02-12T04:46:14.132Z,84.59
2023-02-12T04:48:58.833Z,84.13
2023-02-12T04:51:25.580Z,84.25
2023-02-12T04:53:52.173Z,84.72
2023-02-12T04:56:18.792Z,84.18
2023-02-12T04:58:45.507Z,83.93
2023-02-12T05:03:49.645Z,83.67
2023-02-12T05:06:16.250Z,83.37
2023-02-12T05:08:42.836Z,83.58
2023-02-12T05:11:11.631Z,83.69
2023-02-12T05:13:38.844Z,83.08
2023-02-12T05:16:07.318Z,83.16
2023-02-12T05:18:34.865Z,83.11
2023-02-12T05:23:36.915Z,83.69
2023-02-12T05:26:06.715Z,83.91
2023-02-12T05:28:33.440Z,83.82
2023-02-12T05:31:02.102Z,83.85
2023-02-12T05:33:28.803Z,83.80
2023-02-12T05:35:55.971Z,84.24
2023-02-12T05:38:22.965Z,84.05
2023-02-12T05:40:49.526Z,84.10
2023-02-12T05:43:16.113Z,84.42
2023-02-12T05:45:45.130Z,84.21
2023-02-12T05:48:11.742Z,84.01
2023-02-12T05:50:38.366Z,84.73
2023-02-12T05:53:04.946Z,84.99
2023-02-12T05:55:31.581Z,84.54
2023-02-12T05:57:58.202Z,84.74
2023-02-12T06:00:25.079Z,84.54
2023-02-12T06:02:51.751Z,84.99
2023-02-12T06:05:18.468Z,84.96
2023-02-12T06:10:17.560Z,85.37
2023-02-12T06:12:44.127Z,85.05
2023-02-12T06:15:10.901Z,85.31
2023-02-12T06:17:37.544Z,85.44
2023-02-12T06:20:04.615Z,85.29
2023-02-12T06:22:31.242Z,85.55
2023-02-12T06:24:57.807Z,85.39
2023-02-12T06:27:24.356Z,85.06
2023-02-12T06:29:50.932Z,85.50
2023-02-12T06:32:17.816Z,85.32
2023-02-12T06:34:44.536Z,85.12
2023-02-12T06:37:12.096Z,85.49
2023-02-12T06:39:38.766Z,85.61
2023-02-12T06:42:05.463Z,84.82
2023-02-12T06:44:32.077Z,85.00
2023-02-12T06:46:59.297Z,85.70
2023-02-12T06:51:57.652Z,85.73
2023-02-12T06:54:24.385Z,85.86
2023-02-12T06:56:51.014Z,85.84
2023-02-12T06:59:17.872Z,85.27
2023-02-12T07:01:44.919Z,85.08
2023-02-12T07:04:11.755Z,85.15
2023-02-12T07:06:38.697Z,85.26
2023-02-12T07:09:05.874Z,85.05
2023-02-12T07:11:37.785Z,84.70
2023-02-12T07:14:05.271Z,84.34
2023-02-12T07:19:03.320Z,84.40
2023-02-12T07:21:30.000Z,83.95
2023-02-12T07:23:56.650Z,83.80
2023-02-12T07:26:23.533Z,83.80
2023-02-12T07:28:52.293Z,84.06
2023-02-12T07:31:22.035Z,84.19
2023-02-12T07:33:49.494Z,84.88
2023-02-12T07:36:20.585Z,84.54
2023-02-12T07:38:48.210Z,85.02
2023-02-12T07:41:20.677Z,84.36
2023-02-12T07:43:49.474Z,84.00
2023-02-12T07:46:19.143Z,84.01
2023-02-12T07:48:47.049Z,83.76
2023-02-12T07:51:16.197Z,83.98
2023-02-12T07:53:43.216Z,84.21
2023-02-12T07:56:12.311Z,84.02
2023-02-12T07:58:40.432Z,83.56
2023-02-12T08:01:15.825Z,84.18
2023-02-12T08:03:43.284Z,83.93
2023-02-12T08:06:16.751Z,83.67
2023-02-12T08:11:15.939Z,83.69
2023-02-12T08:13:43.201Z,83.97
2023-02-12T08:16:13.531Z,83.01
2023-02-12T08:18:40.916Z,83.38
2023-02-12T08:21:21.462Z,82.87
2023-02-12T08:26:42.949Z,82.86
2023-02-12T08:29:13.260Z,84.46
2023-02-12T08:31:46.183Z,84.00
2023-02-12T08:34:20.235Z,84.05
2023-02-12T08:36:48.493Z,83.56
2023-02-12T08:39:15.404Z,83.65
2023-02-12T08:41:45.159Z,83.61
2023-02-12T08:44:13.331Z,83.71
2023-02-12T08:49:20.930Z,83.60
2023-02-12T08:51:50.053Z,84.02
2023-02-12T08:54:20.712Z,88.40
2023-02-12T08:56:47.451Z,80.41
2023-02-12T08:59:16.166Z,77.94
2023-02-12T09:01:44.191Z,78.87
2023-02-12T09:04:21.608Z,79.82
2023-02-12T09:06:49.831Z,81.76
2023-02-12T09:09:16.836Z,81.52
2023-02-12T09:11:44.879Z,81.38
2023-02-12T09:14:16.794Z,80.73
2023-02-12T09:16:44.146Z,81.06
2023-02-12T09:19:13.596Z,81.94
2023-02-12T09:21:40.335Z,81.60
2023-02-12T09:24:07.176Z,80.89
2023-02-12T09:26:33.852Z,81.50
2023-02-12T09:29:02.552Z,81.36
2023-02-12T09:31:31.313Z,81.35
2023-02-12T09:34:01.170Z,81.95
2023-02-12T09:36:28.581Z,83.69
2023-02-12T09:41:46.731Z,76.60
2023-02-12T09:44:45.408Z,77.59
2023-02-12T09:47:40.143Z,77.19
2023-02-12T09:50:30.600Z,78.30
2023-02-12T09:52:59.343Z,79.90
2023-02-12T09:55:30.342Z,79.77
2023-02-12T09:57:57.154Z,79.74
2023-02-12T10:00:31.229Z,79.46
2023-02-12T10:03:05.003Z,79.50
2023-02-12T10:05:35.723Z,78.81
2023-02-12T10:08:52.793Z,78.98
2023-02-12T10:11:35.294Z,78.68
2023-02-12T10:14:21.844Z,78.74
2023-02-12T10:17:00.463Z,78.71
2023-02-12T10:19:45.479Z,78.52
2023-02-12T10:22:28.445Z,78.90
2023-02-12T10:25:18.541Z,78.99
2023-02-12T10:27:50.506Z,78.21
2023-02-12T10:30:22.135Z,77.98
2023-02-12T10:32:53.003Z,77.82
2023-02-12T10:35:21.947Z,78.15
2023-02-12T10:37:54.248Z,77.47
2023-02-12T10:40:27.747Z,77.84
2023-02-12T10:42:54.689Z,77.74
2023-02-12T10:45:29.328Z,78.31
2023-02-12T10:48:06.015Z,77.64
2023-02-12T10:50:51.288Z,77.05
2023-02-12T10:53:24.216Z,78.12
2023-02-12T10:56:10.742Z,77.69
2023-02-12T10:58:40.052Z,78.25
2023-02-12T11:01:17.922Z,78.46
2023-02-12T11:03:44.485Z,79.25
2023-02-12T11:06:20.126Z,78.27
2023-02-12T11:08:46.902Z,77.74
2023-02-12T11:11:20.912Z,78.22
2023-02-12T11:13:56.532Z,77.81
2023-02-12T11:16:40.592Z,78.06
2023-02-12T11:19:18.284Z,77.79
2023-02-12T11:21:44.990Z,77.50
2023-02-12T11:24:26.701Z,77.75
2023-02-12T11:27:19.615Z,78.02
2023-02-12T11:29:49.767Z,78.21
2023-02-12T11:32:18.672Z,78.07
2023-02-12T11:35:08.812Z,78.09
2023-02-12T11:37:41.414Z,77.95
2023-02-12T11:40:16.764Z,77.59
2023-02-12T11:42:49.472Z,76.50
2023-02-12T11:45:19.961Z,76.25
2023-02-12T11:47:47.864Z,75.92
2023-02-12T11:50:24.688Z,75.32
2023-02-12T11:52:53.970Z,74.72
2023-02-12T11:55:34.999Z,73.84
2023-02-12T11:58:13.576Z,74.25
2023-02-12T12:00:49.161Z,74.40
2023-02-12T12:03:23.095Z,74.30
2023-02-12T12:05:52.752Z,73.66
2023-02-12T12:08:29.676Z,73.90
2023-02-12T12:11:19.363Z,73.46
2023-02-12T12:14:04.194Z,73.66
2023-02-12T12:17:15.742Z,72.84
2023-02-12T12:23:03.513Z,68.08
2023-02-12T12:25:52.648Z,67.32
2023-02-12T12:28:39.538Z,67.18
2023-02-12T12:31:21.232Z,68.39
2023-02-12T12:34:11.766Z,67.67
2023-02-12T12:39:18.811Z,70.53
2023-02-12T12:41:52.317Z,70.70
2023-02-12T12:44:38.480Z,71.29
2023-02-12T12:47:27.845Z,71.96
2023-02-12T12:50:33.377Z,71.75
2023-02-12T12:53:19.073Z,73.12
2023-02-12T12:56:08.237Z,73.23
2023-02-12T13:01:58.360Z,70.79
2023-02-12T13:04:32.848Z,68.23
2023-02-12T13:07:02.127Z,67.84
2023-02-12T13:09:57.328Z,66.29
2023-02-12T13:12:36.167Z,67.47
2023-02-12T13:15:37.665Z,65.72
2023-02-12T13:18:09.968Z,65.85
2023-02-12T13:20:48.940Z,63.93
2023-02-12T13:23:24.472Z,63.37
2023-02-12T13:26:04.224Z,63.91
2023-02-12T13:28:52.865Z,62.77
2023-02-12T13:31:34.561Z,62.84
2023-02-12T13:34:07.178Z,63.73
2023-02-12T13:36:36.776Z,64.28
2023-02-12T13:39:32.241Z,64.78
2023-02-12T13:42:08.820Z,65.03
2023-02-12T13:45:01.948Z,64.73
2023-02-12T13:47:45.542Z,65.88
2023-02-12T13:50:30.779Z,66.69
2023-02-12T13:53:07.823Z,67.54
2023-02-12T13:55:46.731Z,67.89
2023-02-12T13:58:32.057Z,68.08
2023-02-12T14:01:03.987Z,68.33
2023-02-12T14:03:31.930Z,68.54
2023-02-12T14:06:18.636Z,68.95
2023-02-12T14:08:51.023Z,68.50
2023-02-12T14:11:24.660Z,68.52
2023-02-12T14:13:55.472Z,68.49
2023-02-12T14:16:31.035Z,68.73
2023-02-12T14:19:35.297Z,68.90
2023-02-12T14:22:09.845Z,69.42
2023-02-12T14:24:36.362Z,68.81
2023-02-12T14:27:17.618Z,69.46
2023-02-12T14:30:07.929Z,68.25
2023-02-12T14:32:57.905Z,68.60
2023-02-12T14:35:30.070Z,69.77
2023-02-12T14:38:16.591Z,69.12
2023-02-12T14:40:45.522Z,69.38
2023-02-12T14:43:32.074Z,68.95
2023-02-12T14:46:23.511Z,68.63
2023-02-12T14:49:06.026Z,69.06
2023-02-12T14:51:45.006Z,68.71
2023-02-12T14:54:42.452Z,69.45
2023-02-12T14:57:20.162Z,69.30
2023-02-12T14:59:49.222Z,69.57
2023-02-12T15:02:25.968Z,69.40
2023-02-12T15:04:55.266Z,70.24
2023-02-12T15:07:43.603Z,69.82
2023-02-12T15:10:17.612Z,69.82
2023-02-12T15:13:10.508Z,70.15
2023-02-12T15:15:49.403Z,70.09
2023-02-12T15:18:24.602Z,69.79
2023-02-12T15:20:59.720Z,70.06
2023-02-12T15:23:39.581Z,69.80
2023-02-12T15:26:12.377Z,69.88
2023-02-12T15:28:40.136Z,69.86
2023-02-12T15:31:11.508Z,69.80
2023-02-12T15:33:45.764Z,70.12
2023-02-12T15:36:18.307Z,70.10
2023-02-12T15:38:49.610Z,70.87
2023-02-12T15:41:34.178Z,70.69
2023-02-12T15:44:04.152Z,70.15
2023-02-12T15:51:49.787Z,69.78
2023-02-12T15:54:20.277Z,69.96
2023-02-12T15:56:47.194Z,69.55
2023-02-12T15:59:25.172Z,69.75
2023-02-12T16:02:02.405Z,69.72
2023-02-12T16:04:34.311Z,70.24
2023-02-12T16:07:01.904Z,70.81
2023-02-12T16:09:34.054Z,71.30
2023-02-12T16:12:03.732Z,72.20
2023-02-12T16:14:44.899Z,72.46
2023-02-12T16:17:29.432Z,72.72
2023-02-12T16:20:06.756Z,73.33
2023-02-12T16:22:41.160Z,73.53
2023-02-12T16:25:33.231Z,73.81
2023-02-12T16:28:18.964Z,74.12
2023-02-12T16:30:48.545Z,73.88
2023-02-12T16:36:30.596Z,74.36
2023-02-12T16:39:05.306Z,74.10
2023-02-12T16:41:34.154Z,75.58
2023-02-12T16:44:00.746Z,75.43
2023-02-12T16:46:33.287Z,75.61
2023-02-12T16:49:01.448Z,75.61
2023-02-12T16:51:28.195Z,76.03
2023-02-12T16:53:57.847Z,76.38
2023-02-12T16:56:29.952Z,76.45
2023-02-12T16:58:58.957Z,76.17
2023-02-12T17:01:34.200Z,76.34
2023-02-12T17:04:04.494Z,76.76
2023-02-12T17:06:32.235Z,77.34
2023-02-12T17:08:59.766Z,77.38
2023-02-12T17:11:28.162Z,77.31
2023-02-12T17:13:55.765Z,77.70
2023-02-12T17:16:31.882Z,77.94
2023-02-12T17:19:00.186Z,78.73
2023-02-12T17:24:21.168Z,80.28
2023-02-12T17:26:50.549Z,80.49
2023-02-12T17:29:18.255Z,81.01
2023-02-12T17:31:45.470Z,80.69
2023-02-12T17:34:12.204Z,81.77
2023-02-12T17:36:38.830Z,81.77
2023-02-12T17:39:07.219Z,82.22
2023-02-12T17:41:34.173Z,82.02
2023-02-12T17:44:01.120Z,81.68
2023-02-12T17:49:06.633Z,81.75
2023-02-12T17:51:33.242Z,82.43
2023-02-12T17:53:59.837Z,83.81
2023-02-12T17:56:26.385Z,84.75
2023-02-12T17:58:53.138Z,85.43
2023-02-12T18:01:22.615Z,86.21
2023-02-12T18:03:52.341Z,86.91
2023-02-12T18:06:28.417Z,87.64
2023-02-12T18:08:57.096Z,88.11
2023-02-12T18:11:24.227Z,88.21
2023-02-12T18:13:58.683Z,88.98
2023-02-12T18:16:27.668Z,89.35
2023-02-12T18:18:54.901Z,89.49
2023-02-12T18:21:21.720Z,89.50
2023-02-12T18:23:48.402Z,89.50
2023-02-12T18:26:17.352Z,90.57
2023-02-12T18:28:44.538Z,90.51
2023-02-12T18:31:12.226Z,90.68
2023-02-12T18:33:39.215Z,91.58
2023-02-12T18:36:09.641Z,91.58
2023-02-12T18:38:38.392Z,91.54
2023-02-12T18:41:23.805Z,91.73
2023-02-12T18:43:50.518Z,91.43
2023-02-12T18:46:24.520Z,91.44
2023-02-12T18:48:52.020Z,92.19
2023-02-12T18:51:22.683Z,92.37
2023-02-12T18:53:57.221Z,92.44
2023-02-12T18:56:23.960Z,92.98
2023-02-12T18:58:55.246Z,93.40
2023-02-12T19:04:02.525Z,93.82
2023-02-12T19:06:30.808Z,93.50
2023-02-12T19:08:59.635Z,93.24
2023-02-12T19:11:27.926Z,96.36
2023-02-12T19:13:55.165Z,92.26
2023-02-12T19:16:23.885Z,92.07
2023-02-12T19:18:52.015Z,92.86
2023-02-12T19:21:19.055Z,93.01
2023-02-12T19:23:45.748Z,93.10
2023-02-12T19:26:15.611Z,93.20
2023-02-12T19:28:43.294Z,92.63
2023-02-12T19:31:37.728Z,92.92
2023-02-12T19:34:07.218Z,92.97
2023-02-12T19:36:36.044Z,93.56
2023-02-12T19:39:04.811Z,92.99
2023-02-12T19:41:33.056Z,93.35
2023-02-12T19:44:01.515Z,94.25
2023-02-12T19:49:02.842Z,95.22
2023-02-12T19:51:30.609Z,94.91
2023-02-12T19:54:02.394Z,94.61
2023-02-12T19:56:29.439Z,93.98
2023-02-12T19:58:57.512Z,95.02
2023-02-12T20:03:58.955Z,96.29
2023-02-12T20:06:29.848Z,96.61
2023-02-12T20:08:56.978Z,97.35
2023-02-12T20:11:25.813Z,96.83
2023-02-12T20:13:52.937Z,97.09
2023-02-12T20:16:22.575Z,95.44
2023-02-12T20:18:51.377Z,95.19
2023-02-12T20:21:20.930Z,95.25
2023-02-12T20:23:47.628Z,94.67
2023-02-12T20:26:14.971Z,95.49
2023-02-12T20:33:57.036Z,94.42
2023-02-12T20:36:24.402Z,94.07
2023-02-12T20:38:58.447Z,92.26
2023-02-12T20:41:26.959Z,92.64
2023-02-12T20:43:53.902Z,92.67
2023-02-12T20:46:23.362Z,93.26
2023-02-12T20:48:50.130Z,93.95
2023-02-12T20:51:19.529Z,93.59
2023-02-12T20:53:46.886Z,94.11
2023-02-12T20:56:25.284Z,94.29
2023-02-12T20:58:52.619Z,93.31
2023-02-12T21:01:25.693Z,91.37
2023-02-12T21:03:55.165Z,93.10
2023-02-12T21:06:23.561Z,93.57
2023-02-12T21:08:51.460Z,93.64
2023-02-12T21:11:22.005Z,93.50
2023-02-12T21:13:58.891Z,93.43
2023-02-12T21:16:33.470Z,93.74
2023-02-12T21:19:00.462Z,93.96
2023-02-12T21:21:29.623Z,95.47
2023-02-12T21:23:58.337Z,95.68
2023-02-12T21:26:27.239Z,96.03
2023-02-12T21:28:56.114Z,95.29
2023-02-12T21:31:29.163Z,93.79
2023-02-12T21:33:57.704Z,93.26
2023-02-12T21:36:26.689Z,94.02
2023-02-12T21:38:53.345Z,94.24
2023-02-12T21:41:23.559Z,94.02
2023-02-12T21:43:52.657Z,94.66
2023-02-12T21:46:21.753Z,95.41
2023-02-12T21:51:27.169Z,98.02
2023-02-12T21:54:06.211Z,97.29
2023-02-12T21:56:32.937Z,96.86
2023-02-12T21:58:59.717Z,95.64
2023-02-12T22:01:33.206Z,96.05
2023-02-12T22:04:01.497Z,96.45
2023-02-12T22:06:28.090Z,95.77
2023-02-12T22:08:56.790Z,94.87
2023-02-12T22:11:23.501Z,94.57
2023-02-12T22:13:50.117Z,95.33
2023-02-12T22:16:18.153Z,95.59
2023-02-12T22:18:46.259Z,95.34
2023-02-12T22:21:15.306Z,95.35
2023-02-12T22:23:43.274Z,95.36
2023-02-12T22:26:14.212Z,95.93
2023-02-12T22:28:43.282Z,95.61
2023-02-12T22:31:12.381Z,96.10
2023-02-12T22:33:39.167Z,96.64
2023-02-12T22:36:08.260Z,96.90
2023-02-12T22:38:36.181Z,96.74
2023-02-12T22:41:03.292Z,97.15
2023-02-12T22:46:02.210Z,97.92
2023-02-12T22:48:29.682Z,97.34
2023-02-12T22:50:57.651Z,95.27
2023-02-12T22:53:25.336Z,97.11
2023-02-12T22:58:29.982Z,96.94
2023-02-12T23:00:56.989Z,98.21
2023-02-12T23:03:23.810Z,98.50
2023-02-12T23:05:50.348Z,98.51
2023-02-12T23:08:16.913Z,97.80
2023-02-12T23:10:43.951Z,97.56
2023-02-12T23:13:13.543Z,97.62
2023-02-12T23:15:45.111Z,97.82
2023-02-12T23:18:11.651Z,97.43
2023-02-12T23:20:39.909Z,97.54
2023-02-12T23:23:06.478Z,97.17
2023-02-12T23:25:33.003Z,97.16
2023-02-12T23:27:59.696Z,97.10
2023-02-12T23:30:26.444Z,96.75
2023-02-12T23:32:53.079Z,96.68
2023-02-12T23:35:19.727Z,95.04
2023-02-12T23:37:46.271Z,94.94
2023-02-12T23:40:13.555Z,95.88
2023-02-12T23:42:40.971Z,95.64
2023-02-12T23:45:09.176Z,96.14
2023-02-12T23:47:35.845Z,95.90
2023-02-12T23:50:02.368Z,95.81
2023-02-12T23:52:28.900Z,96.68
2023-02-12T23:54:56.868Z,95.93
2023-02-12T23:57:23.482Z,96.35
2023-02-12T23:59:50.165Z,96.90
